Time;durP1;ratioP1;P1;durP2;ratioP2;P2;SDS_P1;SDS_P2;PMS_P1;PMS_P2;Temp;Humidity;BMP_temperature;BMP_pressure;BME280_temperature;BME280_humidity;BME280_pressure;Samples;Min_cycle;Max_cycle;Signal;HPM_P1;HPM_P2
2022/02/05 00:02:31;;;;;;;5.55;2.00;;;5.10;99.90;;;;;;5027073;28;20148;-43
2022/02/05 00:04:52;;;;;;;6.97;1.90;;;5.20;99.90;;;;;;5017006;28;20708;-43
2022/02/05 00:07:17;;;;;;;5.28;2.03;;;5.20;99.90;;;;;;5026657;28;20423;-44
2022/02/05 00:10:12;;;;;;;11.15;1.77;;;5.30;99.90;;;;;;5027050;28;20032;-43
2022/02/05 00:13:04;;;;;;;6.43;1.80;;;5.30;99.90;;;;;;5025318;28;20362;-44
2022/02/05 00:42:37;;;;;;;4.35;1.60;;;4.90;99.90;;;;;;5026236;28;20404;-43
2022/02/05 00:45:07;;;;;;;7.78;1.83;;;4.80;99.90;;;;;;5026122;28;20041;-43
2022/02/05 00:47:33;;;;;;;3.95;1.40;;;4.80;99.90;;;;;;5024973;28;20029;-43
2022/02/05 00:50:01;;;;;;;4.55;1.40;;;4.80;99.90;;;;;;5026747;28;20075;-43
2022/02/05 00:52:27;;;;;;;4.85;1.67;;;4.90;99.90;;;;;;5026238;28;20060;-44
2022/02/05 00:55:01;;;;;;;5.68;2.08;;;4.80;99.90;;;;;;5025555;28;20014;-43
2022/02/05 00:59:53;;;;;;;3.88;1.25;;;4.80;99.90;;;;;;5025555;28;20029;-43
2022/02/05 01:02:18;;;;;;;6.50;1.50;;;4.70;99.90;;;;;;5025291;28;20095;-44
2022/02/05 01:04:44;;;;;;;6.05;1.98;;;4.70;99.90;;;;;;5025959;28;20037;-43
2022/02/05 01:07:09;;;;;;;4.93;1.40;;;4.70;99.90;;;;;;5025199;28;20057;-43
2022/02/05 01:09:35;;;;;;;7.63;1.77;;;4.60;99.90;;;;;;5026160;28;20022;-43
2022/02/05 01:12:02;;;;;;;6.15;2.25;;;4.50;99.90;;;;;;5025906;28;20384;-43
2022/02/05 01:14:33;;;;;;;4.40;1.60;;;4.60;99.90;;;;;;5025053;28;20107;-42
2022/02/05 01:17:06;;;;;;;2.95;1.48;;;4.50;99.90;;;;;;5026519;28;20109;-44
2022/02/05 01:22:16;;;;;;;6.43;1.48;;;4.50;99.90;;;;;;5015030;28;20550;-44
2022/02/05 01:24:44;;;;;;;4.78;1.48;;;4.50;99.90;;;;;;5025585;28;20069;-43
2022/02/05 01:27:14;;;;;;;5.18;1.40;;;4.40;99.90;;;;;;5025829;28;20048;-43
2022/02/05 01:30:00;;;;;;;4.13;1.48;;;4.40;99.90;;;;;;5025266;28;20026;-42
2022/02/05 01:32:28;;;;;;;4.90;1.42;;;4.30;99.90;;;;;;5025357;28;20029;-44
2022/02/05 01:49:47;;;;;;;8.13;1.83;;;4.40;99.90;;;;;;5025493;28;20503;-43
2022/02/05 01:54:31;;;;;;;4.07;1.52;;;4.50;99.90;;;;;;5025522;28;20033;-44
2022/02/05 01:57:07;;;;;;;4.03;1.48;;;4.60;99.90;;;;;;5025214;28;20045;-44
2022/02/05 02:04:59;;;;;;;5.40;1.58;;;4.60;99.90;;;;;;5025182;28;20107;-43
2022/02/05 02:12:51;;;;;;;3.15;1.27;;;4.60;99.90;;;;;;5024716;28;20614;-42
2022/02/05 02:15:28;;;;;;;2.28;1.17;;;4.70;99.90;;;;;;5009293;28;20109;-44
2022/02/05 02:26:10;;;;;;;3.58;1.50;;;4.60;99.90;;;;;;5028751;28;20040;-43
2022/02/05 02:29:03;;;;;;;5.75;1.48;;;4.50;99.90;;;;;;5028208;28;20065;-43
2022/02/05 02:31:33;;;;;;;6.22;1.48;;;4.50;99.90;;;;;;5026977;28;20508;-44
2022/02/05 02:34:01;;;;;;;3.97;1.52;;;4.50;99.90;;;;;;5028876;28;20026;-43
2022/02/05 02:36:39;;;;;;;3.80;1.60;;;4.40;99.90;;;;;;5028872;28;20022;-44
2022/02/05 02:39:10;;;;;;;7.07;1.90;;;4.40;99.90;;;;;;5027665;28;20158;-44
2022/02/05 02:44:10;;;;;;;4.55;2.00;;;4.30;99.90;;;;;;5028040;28;20049;-43
2022/02/05 02:46:36;;;;;;;5.75;1.50;;;4.20;99.90;;;;;;5028354;28;20018;-44
2022/02/05 02:49:03;;;;;;;5.93;1.40;;;4.30;99.90;;;;;;5028502;28;20033;-43
2022/02/05 02:57:23;;;;;;;3.35;1.17;;;4.40;99.90;;;;;;5028760;28;20443;-43
2022/02/05 03:02:18;;;;;;;5.68;1.40;;;4.50;99.90;;;;;;5027395;28;20083;-42
2022/02/05 03:04:43;;;;;;;4.70;1.52;;;4.60;99.90;;;;;;5028202;28;20507;-44
2022/02/05 03:07:09;;;;;;;6.03;1.77;;;4.70;99.90;;;;;;5027723;28;20128;-44
2022/02/05 03:09:35;;;;;;;4.47;1.40;;;4.70;99.90;;;;;;5027928;28;20083;-43
2022/02/05 03:12:01;;;;;;;6.50;1.40;;;4.70;99.90;;;;;;5028411;28;20025;-42
2022/02/05 03:14:27;;;;;;;6.20;1.50;;;4.80;99.90;;;;;;5026567;28;20224;-42
2022/02/05 03:17:01;;;;;;;6.60;1.73;;;4.80;99.90;;;;;;5028689;28;20021;-43
2022/02/05 03:19:26;;;;;;;4.88;1.67;;;4.80;99.90;;;;;;5027781;28;20095;-43
2022/02/05 03:21:52;;;;;;;4.97;1.67;;;4.80;99.90;;;;;;5026982;28;20063;-42
2022/02/05 03:24:17;;;;;;;4.93;1.50;;;4.80;99.90;;;;;;5027194;28;20033;-43
2022/02/05 03:26:43;;;;;;;7.75;1.83;;;4.80;99.90;;;;;;5027987;28;20033;-43
2022/02/05 03:29:11;;;;;;;8.73;1.83;;;4.80;99.90;;;;;;5026658;28;20029;-43
2022/02/05 03:31:37;;;;;;;10.68;1.73;;;4.80;99.90;;;;;;5027676;28;20469;-44
2022/02/05 03:34:04;;;;;;;8.95;1.50;;;4.90;99.90;;;;;;5027498;28;20047;-42
2022/02/05 03:36:29;;;;;;;7.38;2.03;;;4.90;99.90;;;;;;5026064;28;20408;-44
2022/02/05 03:38:55;;;;;;;7.00;1.38;;;4.90;99.90;;;;;;5027996;28;20531;-44
2022/02/05 03:41:21;;;;;;;8.15;1.50;;;4.90;99.90;;;;;;5027152;28;20037;-43
2022/02/05 03:43:46;;;;;;;4.63;1.77;;;4.90;99.90;;;;;;5027082;28;20033;-44
2022/02/05 03:46:12;;;;;;;5.22;1.48;;;4.90;99.90;;;;;;5027639;28;20053;-43
2022/02/05 03:48:37;;;;;;;6.25;1.60;;;4.90;99.90;;;;;;5027614;28;20052;-43
2022/02/05 03:51:03;;;;;;;6.60;1.52;;;4.90;99.90;;;;;;5026960;28;20053;-43
2022/02/05 03:53:29;;;;;;;4.63;1.85;;;4.90;99.90;;;;;;5027322;28;20084;-42
2022/02/05 03:55:54;;;;;;;6.68;1.67;;;4.90;99.90;;;;;;5026678;28;20026;-42
2022/02/05 03:58:20;;;;;;;5.10;1.70;;;4.90;99.90;;;;;;5026788;28;20451;-43
2022/02/05 04:00:45;;;;;;;5.65;1.63;;;4.90;99.90;;;;;;5026789;28;20049;-43
2022/02/05 04:03:11;;;;;;;8.60;2.10;;;4.90;99.90;;;;;;5026111;28;20058;-44
2022/02/05 04:05:37;;;;;;;7.30;1.95;;;4.90;99.90;;;;;;5026722;28;20028;-45
2022/02/05 04:08:06;;;;;;;10.13;1.80;;;4.90;99.90;;;;;;5027240;28;20905;-43
2022/02/05 04:10:41;;;;;;;6.32;1.67;;;4.90;99.90;;;;;;5026260;28;20091;-43
2022/02/05 04:16:42;;;;;;;8.00;1.83;;;4.90;99.90;;;;;;5026773;28;20027;-43
2022/02/05 04:18:42;;;;;;;5.72;1.80;;;4.90;99.90;;;;;;5015577;28;20121;-43
2022/02/05 04:21:08;;;;;;;8.10;1.90;;;4.90;99.90;;;;;;5026528;28;20014;-43
2022/02/05 04:23:34;;;;;;;6.57;1.52;;;4.90;99.90;;;;;;5026415;28;20498;-43
2022/02/05 04:25:59;;;;;;;6.38;1.50;;;4.90;99.90;;;;;;5026312;28;20029;-43
2022/02/05 04:28:25;;;;;;;5.95;1.85;;;4.90;99.90;;;;;;5025964;28;20645;-43
2022/02/05 04:30:50;;;;;;;9.25;1.70;;;4.90;99.90;;;;;;5026290;28;20483;-42
2022/02/05 04:33:16;;;;;;;6.72;1.58;;;4.80;99.90;;;;;;5024965;28;20040;-42
2022/02/05 04:35:44;;;;;;;7.07;2.05;;;4.80;99.90;;;;;;5026763;28;20041;-43
2022/02/05 04:38:10;;;;;;;7.45;1.98;;;4.80;99.90;;;;;;5024530;28;20495;-43
2022/02/05 04:40:54;;;;;;;7.07;1.73;;;4.90;99.90;;;;;;5026356;28;20036;-43
2022/02/05 04:46:24;;;;;;;9.75;1.65;;;4.80;99.90;;;;;;5026027;28;20053;-43
2022/02/05 04:59:29;;;;;;;7.18;1.55;;;4.60;99.90;;;;;;5025676;28;20029;-43
2022/02/05 05:02:15;;;;;;;5.15;1.70;;;4.70;99.90;;;;;;5026057;28;20049;-43
2022/02/05 05:20:23;;;;;;;8.40;1.90;;;4.90;99.90;;;;;;5016145;28;20033;-43
2022/02/05 05:22:49;;;;;;;6.15;1.55;;;4.90;99.90;;;;;;5026237;28;20100;-44
2022/02/05 05:25:15;;;;;;;8.35;1.80;;;4.90;99.90;;;;;;5025430;28;20112;-43
2022/02/05 05:27:40;;;;;;;7.78;2.03;;;4.90;99.90;;;;;;5025117;28;20060;-44
2022/02/05 05:30:07;;;;;;;10.05;3.05;;;5.00;99.90;;;;;;5025815;28;20034;-43
2022/02/05 05:32:33;;;;;;;9.38;2.50;;;5.00;99.90;;;;;;5025774;28;20025;-43
2022/02/05 05:34:59;;;;;;;6.40;1.83;;;5.00;99.90;;;;;;5024805;28;20484;-42
2022/02/05 05:37:24;;;;;;;5.43;1.92;;;5.00;99.90;;;;;;5026017;28;20029;-43
2022/02/05 05:39:50;;;;;;;6.95;1.70;;;5.00;99.90;;;;;;5026153;28;20030;-43
2022/02/05 05:42:25;;;;;;;9.88;1.67;;;4.90;99.90;;;;;;5024686;28;20380;-43
2022/02/05 05:45:19;;;;;;;9.48;2.00;;;4.90;99.90;;;;;;5028334;28;20041;-44
2022/02/05 05:53:13;;;;;;;9.15;1.70;;;4.60;99.90;;;;;;5029088;28;20026;-44
2022/02/05 05:55:46;;;;;;;8.77;2.13;;;4.50;99.90;;;;;;5028852;28;20026;-44
2022/02/05 05:58:16;;;;;;;10.02;1.77;;;4.40;99.90;;;;;;5029743;28;20029;-44
2022/02/05 06:00:43;;;;;;;8.02;1.30;;;4.40;99.90;;;;;;5029767;28;20025;-43
2022/02/05 06:03:09;;;;;;;5.88;1.30;;;4.30;99.90;;;;;;5028360;28;20128;-43
2022/02/05 06:05:36;;;;;;;7.78;1.60;;;4.30;99.90;;;;;;5028736;28;20061;-44
2022/02/05 06:08:04;;;;;;;6.70;1.42;;;4.30;99.90;;;;;;5009450;28;20044;-43
2022/02/05 06:10:29;;;;;;;4.20;1.60;;;4.30;99.90;;;;;;5022470;28;20108;-44
2022/02/05 06:12:55;;;;;;;8.38;1.50;;;4.40;99.90;;;;;;5029389;28;20108;-44
2022/02/05 06:15:21;;;;;;;4.95;1.60;;;4.40;99.90;;;;;;5028600;28;20048;-43
2022/02/05 06:17:49;;;;;;;4.47;1.38;;;4.40;99.90;;;;;;5028503;28;20026;-42
2022/02/05 06:20:15;;;;;;;6.70;1.52;;;4.40;99.90;;;;;;5028202;28;20040;-44
2022/02/05 06:22:40;;;;;;;4.30;1.30;;;4.40;99.90;;;;;;5029223;28;20037;-44
2022/02/05 06:25:06;;;;;;;5.35;1.63;;;4.30;99.90;;;;;;5028236;28;20037;-43
2022/02/05 06:27:32;;;;;;;3.30;1.33;;;4.30;99.90;;;;;;5028184;28;20022;-43
2022/02/05 06:29:57;;;;;;;8.32;1.70;;;4.30;99.90;;;;;;5028581;28;20040;-43
2022/02/05 06:32:23;;;;;;;4.18;1.40;;;4.30;99.90;;;;;;5027793;28;20489;-43
2022/02/05 06:34:48;;;;;;;7.18;2.03;;;4.40;99.90;;;;;;5028687;28;20033;-43
2022/02/05 06:37:14;;;;;;;6.70;1.63;;;4.40;99.90;;;;;;5028034;28;20022;-43
2022/02/05 06:39:40;;;;;;;7.65;1.75;;;4.50;99.90;;;;;;5027877;28;20026;-43
2022/02/05 06:42:06;;;;;;;3.83;1.20;;;4.60;99.90;;;;;;5028148;28;20463;-44
2022/02/05 06:44:32;;;;;;;5.57;1.85;;;4.60;99.90;;;;;;5027444;28;20037;-43
2022/02/05 06:46:57;;;;;;;6.97;1.80;;;4.70;99.90;;;;;;5028636;28;20424;-44
2022/02/05 06:49:26;;;;;;;9.00;1.75;;;4.70;99.90;;;;;;5028538;28;20032;-44
2022/02/05 06:51:53;;;;;;;4.97;1.50;;;4.70;99.90;;;;;;5027739;28;20030;-43
2022/02/05 06:54:18;;;;;;;4.05;1.70;;;4.70;99.90;;;;;;5027855;28;20041;-43
2022/02/05 06:56:44;;;;;;;7.72;1.65;;;4.70;99.90;;;;;;5027875;28;20025;-42
2022/02/05 06:59:09;;;;;;;8.48;1.70;;;4.70;99.90;;;;;;5027529;28;20022;-43
2022/02/05 07:01:35;;;;;;;5.90;1.70;;;4.70;99.90;;;;;;5027803;28;20520;-44
2022/02/05 07:04:00;;;;;;;6.85;2.03;;;4.70;99.90;;;;;;5028709;28;20041;-44
2022/02/05 07:06:26;;;;;;;6.38;1.88;;;4.70;99.90;;;;;;5026643;28;20025;-42
2022/02/05 07:08:51;;;;;;;8.05;1.90;;;4.70;99.90;;;;;;5028205;28;20033;-43
2022/02/05 07:11:18;;;;;;;5.68;1.50;;;4.60;99.90;;;;;;5027981;28;20044;-45
2022/02/05 07:13:43;;;;;;;5.30;1.80;;;4.70;99.90;;;;;;5027575;28;20385;-42
2022/02/05 07:16:22;;;;;;;6.70;2.03;;;4.70;99.90;;;;;;5027999;28;20476;-44
2022/02/05 07:21:31;;;;;;;7.65;1.88;;;4.70;99.90;;;;;;5026550;28;20120;-43
2022/02/05 07:29:17;;;;;;;9.32;2.22;;;4.60;99.90;;;;;;5026419;28;20144;-43
2022/02/05 07:31:46;;;;;;;7.75;2.28;;;4.60;99.90;;;;;;5027274;28;20025;-42
2022/02/05 07:34:12;;;;;;;9.68;2.25;;;4.60;99.90;;;;;;5023513;28;20037;-44
2022/02/05 07:36:38;;;;;;;4.45;2.05;;;4.60;99.90;;;;;;5028066;28;20025;-43
2022/02/05 07:39:06;;;;;;;8.98;2.38;;;4.60;99.90;;;;;;5027390;28;20518;-42
2022/02/05 07:41:32;;;;;;;6.05;1.70;;;4.60;99.90;;;;;;5026393;28;20052;-44
2022/02/05 07:43:57;;;;;;;8.15;2.20;;;4.60;99.90;;;;;;5026942;28;20436;-43
2022/02/05 07:46:24;;;;;;;7.93;2.30;;;4.70;99.90;;;;;;5027237;28;20029;-43
2022/02/05 07:48:49;;;;;;;6.88;1.80;;;4.70;99.90;;;;;;5026648;28;20026;-42
2022/02/05 07:51:15;;;;;;;10.38;2.22;;;4.70;99.90;;;;;;5027102;28;20358;-43
2022/02/05 07:53:42;;;;;;;8.40;2.85;;;4.70;99.90;;;;;;5027455;28;20483;-43
2022/02/05 07:56:07;;;;;;;7.15;2.38;;;4.70;99.90;;;;;;5026295;28;20073;-43
2022/02/05 07:58:34;;;;;;;9.27;2.42;;;4.70;99.90;;;;;;5026314;28;20447;-43
2022/02/05 08:01:00;;;;;;;10.50;3.03;;;4.70;99.90;;;;;;5027516;28;20029;-43
2022/02/05 08:03:26;;;;;;;6.72;2.15;;;4.70;99.90;;;;;;5025315;28;20068;-43
2022/02/05 08:05:51;;;;;;;6.53;3.08;;;4.70;99.90;;;;;;5027417;28;20116;-44
2022/02/05 08:08:21;;;;;;;6.78;2.25;;;4.60;99.90;;;;;;5026433;28;20018;-43
2022/02/05 08:11:00;;;;;;;8.90;2.25;;;4.60;99.90;;;;;;5026318;28;20049;-45
2022/02/05 08:13:28;;;;;;;9.07;2.20;;;4.60;99.90;;;;;;5026055;28;20034;-42
2022/02/05 08:15:58;;;;;;;9.23;2.88;;;4.60;99.90;;;;;;5027280;28;20675;-44
2022/02/05 08:18:23;;;;;;;6.57;2.45;;;4.60;99.90;;;;;;5026147;28;20152;-43
2022/02/05 08:20:49;;;;;;;8.45;2.35;;;4.60;99.90;;;;;;5026800;28;20105;-44
2022/02/05 08:23:15;;;;;;;7.68;2.33;;;4.60;99.90;;;;;;5025647;28;20204;-42
2022/02/05 08:25:40;;;;;;;8.50;2.47;;;4.60;99.90;;;;;;5026568;28;20045;-43
2022/02/05 08:28:06;;;;;;;5.45;2.38;;;4.60;99.90;;;;;;5027157;28;20030;-44
2022/02/05 08:30:31;;;;;;;7.85;2.30;;;4.60;99.90;;;;;;5025074;28;20032;-44
2022/02/05 08:32:59;;;;;;;8.52;2.50;;;4.60;99.90;;;;;;5026721;28;20067;-43
2022/02/05 08:35:24;;;;;;;7.75;2.38;;;4.60;99.90;;;;;;5026285;28;20025;-42
2022/02/05 08:37:52;;;;;;;6.88;2.53;;;4.60;99.90;;;;;;5026069;28;20486;-42
2022/02/05 08:40:18;;;;;;;8.50;2.85;;;4.70;99.90;;;;;;5025694;28;20048;-43
2022/02/05 08:42:43;;;;;;;6.82;2.65;;;4.80;99.90;;;;;;5026600;28;20488;-43
2022/02/05 08:45:09;;;;;;;7.10;2.47;;;4.80;99.90;;;;;;5024925;28;20037;-43
2022/02/05 08:47:35;;;;;;;4.47;2.30;;;5.00;99.90;;;;;;5025783;28;20049;-44
2022/02/05 08:50:01;;;;;;;5.78;2.17;;;5.10;99.90;;;;;;5026515;28;20026;-42
2022/02/05 08:52:28;;;;;;;7.00;2.58;;;5.20;99.90;;;;;;5024882;28;20028;-43
2022/02/05 08:54:53;;;;;;;8.80;3.10;;;5.30;99.90;;;;;;5026168;28;20018;-43
2022/02/05 08:57:19;;;;;;;12.77;3.05;;;5.40;99.90;;;;;;5021836;28;20027;-43
2022/02/05 08:59:56;;;;;;;8.50;2.75;;;5.40;99.90;;;;;;5024842;28;20060;-43
2022/02/05 09:02:35;;;;;;;8.52;2.80;;;5.50;99.90;;;;;;5024403;28;20803;-43
2022/02/05 09:05:13;;;;;;;11.93;3.35;;;5.50;99.90;;;;;;5025311;28;20045;-43
2022/02/05 09:07:41;;;;;;;9.05;2.30;;;5.60;99.90;;;;;;5025000;28;20021;-44
2022/02/05 09:10:23;;;;;;;9.27;2.30;;;5.70;99.90;;;;;;5025588;28;20047;-43
2022/02/05 09:13:11;;;;;;;8.18;2.63;;;5.70;99.90;;;;;;5024556;28;20030;-43
2022/02/05 09:15:37;;;;;;;9.20;3.15;;;5.80;99.90;;;;;;5025434;28;20028;-44
2022/02/05 09:18:03;;;;;;;7.63;2.38;;;5.90;99.90;;;;;;5014243;28;20029;-44
2022/02/05 09:20:29;;;;;;;9.52;3.97;;;5.90;99.90;;;;;;5023256;28;20053;-43
2022/02/05 09:22:55;;;;;;;10.70;3.00;;;5.90;99.90;;;;;;5025648;28;20061;-43
2022/02/05 09:25:22;;;;;;;11.25;3.88;;;6.00;99.90;;;;;;5024693;28;20128;-43
2022/02/05 09:27:49;;;;;;;10.35;3.47;;;6.00;99.90;;;;;;5024386;28;20021;-43
2022/02/05 09:30:17;;;;;;;5.65;2.72;;;6.10;99.90;;;;;;5025232;28;20040;-43
2022/02/05 09:32:44;;;;;;;7.63;2.72;;;6.10;99.90;;;;;;5024157;28;20026;-43
2022/02/05 09:35:11;;;;;;;9.07;2.40;;;6.10;99.90;;;;;;5024561;28;20056;-43
2022/02/05 09:37:37;;;;;;;8.80;2.67;;;6.10;99.90;;;;;;5024926;28;20026;-44
2022/02/05 09:40:04;;;;;;;9.48;2.47;;;6.20;99.90;;;;;;5025389;28;20029;-43
2022/02/05 09:42:30;;;;;;;7.72;2.30;;;6.30;99.90;;;;;;5023348;28;20761;-43
2022/02/05 09:45:00;;;;;;;8.77;2.58;;;6.40;99.90;;;;;;5024677;28;20053;-42
2022/02/05 09:47:26;;;;;;;9.38;3.05;;;6.50;99.90;;;;;;5023954;28;20100;-43
2022/02/05 09:49:52;;;;;;;9.40;2.72;;;6.50;99.90;;;;;;5025117;28;20445;-44
2022/02/05 09:52:27;;;;;;;13.25;3.03;;;6.60;99.90;;;;;;5024139;28;20052;-44
2022/02/05 09:54:52;;;;;;;9.73;2.78;;;6.60;99.90;;;;;;5024631;28;20113;-44
2022/02/05 09:57:19;;;;;;;7.97;2.80;;;6.60;99.90;;;;;;5023509;28;20104;-44
2022/02/05 09:59:55;;;;;;;9.60;3.22;;;6.60;99.90;;;;;;5024393;28;20018;-43
2022/02/05 10:02:22;;;;;;;13.23;3.05;;;6.60;99.90;;;;;;5022973;28;20569;-42
2022/02/05 10:05:19;;;;;;;9.18;2.50;;;6.70;99.90;;;;;;5025538;28;20047;-43
2022/02/05 10:07:55;;;;;;;8.55;2.70;;;6.80;99.90;;;;;;5016659;28;20030;-43
2022/02/05 10:10:21;;;;;;;6.63;2.28;;;6.90;99.90;;;;;;5023254;28;20436;-42
2022/02/05 10:13:09;;;;;;;9.18;2.67;;;7.00;99.90;;;;;;5024983;28;20091;-44
2022/02/05 10:15:36;;;;;;;9.90;2.22;;;7.20;99.90;;;;;;5024038;28;20025;-44
2022/02/05 10:18:03;;;;;;;5.80;2.25;;;7.20;99.90;;;;;;5024415;28;20044;-43
2022/02/05 10:20:29;;;;;;;8.15;2.13;;;7.30;99.90;;;;;;5024601;28;20022;-43
2022/02/05 10:22:56;;;;;;;9.73;2.22;;;7.40;99.90;;;;;;5023961;28;20049;-43
2022/02/05 10:25:24;;;;;;;6.60;1.90;;;7.40;99.90;;;;;;5024028;28;20116;-43
2022/02/05 10:27:51;;;;;;;8.50;2.00;;;7.40;99.90;;;;;;5024428;28;20021;-43
2022/02/05 10:30:26;;;;;;;6.57;2.03;;;7.50;99.90;;;;;;5023829;28;20362;-43
2022/02/05 10:33:12;;;;;;;9.90;2.35;;;7.60;99.90;;;;;;5027697;28;20041;-44
2022/02/05 10:36:13;;;;;;;7.15;2.25;;;7.60;99.90;;;;;;5028133;28;20071;-44
2022/02/05 10:43:58;;;;;;;9.88;2.13;;;7.70;99.90;;;;;;5027395;28;20068;-45
2022/02/05 10:46:42;;;;;;;6.32;1.88;;;7.70;99.90;;;;;;5027673;28;20353;-43
2022/02/05 10:49:12;;;;;;;6.63;1.80;;;7.70;99.90;;;;;;5028346;28;20476;-41
2022/02/05 10:51:44;;;;;;;7.45;3.33;;;7.70;99.90;;;;;;5027403;28;20029;-43
2022/02/05 10:54:27;;;;;;;5.25;1.80;;;7.60;99.90;;;;;;5028073;28;20025;-43
2022/02/05 10:56:58;;;;;;;10.15;2.08;;;7.60;99.90;;;;;;5028928;28;20035;-43
2022/02/05 10:59:40;;;;;;;6.43;1.80;;;7.60;99.90;;;;;;5026703;28;20480;-43
2022/02/05 11:05:15;;;;;;;7.47;2.28;;;7.60;99.90;;;;;;5022634;28;20045;-43
2022/02/05 11:05:17;;;;;;;9.18;2.35;;;7.60;99.90;;;;;;5028134;28;20080;-42
2022/02/05 11:07:41;;;;;;;11.48;2.30;;;7.60;99.90;;;;;;5028712;28;20033;-43
2022/02/05 11:10:07;;;;;;;5.93;2.63;;;7.60;99.90;;;;;;5020391;28;20135;-44
2022/02/05 11:20:35;;;;;;;7.70;2.13;;;7.40;99.90;;;;;;5019323;28;20044;-43
2022/02/05 11:23:05;;;;;;;12.50;2.75;;;7.40;99.90;;;;;;5027690;28;20377;-43
2022/02/05 11:25:39;;;;;;;8.02;2.05;;;7.40;99.90;;;;;;5021428;28;20120;-43
2022/02/05 11:28:06;;;;;;;7.97;2.35;;;7.40;99.90;;;;;;5034476;28;20086;-43
2022/02/05 11:30:42;;;;;;;8.88;2.55;;;7.40;99.90;;;;;;5038269;28;20053;-43
2022/02/05 11:33:28;;;;;;;10.70;2.40;;;7.40;99.90;;;;;;5026762;28;20105;-44
2022/02/05 11:38:35;;;;;;;8.55;2.95;;;7.50;99.90;;;;;;5027476;28;20045;-43
2022/02/05 11:41:06;;;;;;;8.63;2.60;;;7.50;99.90;;;;;;5026194;28;20059;-44
2022/02/05 11:43:34;;;;;;;10.77;2.58;;;7.50;99.90;;;;;;5026431;28;20049;-43
2022/02/05 11:46:08;;;;;;;9.40;2.30;;;7.50;99.90;;;;;;5026941;28;20041;-43
2022/02/05 11:48:59;;;;;;;9.13;2.30;;;7.50;99.90;;;;;;5026036;28;20586;-43
2022/02/05 11:51:31;;;;;;;10.10;2.35;;;7.50;99.90;;;;;;5026500;28;20111;-43
2022/02/05 11:53:57;;;;;;;10.80;2.35;;;7.50;99.90;;;;;;5027699;28;20026;-43
2022/02/05 11:56:39;;;;;;;7.50;2.15;;;7.50;99.90;;;;;;5026159;28;20120;-43
2022/02/05 11:59:05;;;;;;;6.53;1.40;;;7.60;99.90;;;;;;5027204;28;20021;-43
2022/02/05 12:01:38;;;;;;;8.85;2.10;;;7.60;99.90;;;;;;5025619;28;20385;-44
2022/02/05 12:04:12;;;;;;;7.00;2.20;;;7.70;99.90;;;;;;5027156;28;20041;-43
2022/02/05 12:07:04;;;;;;;9.02;2.65;;;7.70;99.90;;;;;;5027162;28;20029;-44
2022/02/05 12:09:42;;;;;;;8.70;2.20;;;7.90;99.90;;;;;;5026387;28;20025;-42
2022/02/05 12:12:24;;;;;;;7.70;1.90;;;8.00;99.90;;;;;;5026378;28;20060;-43
2022/02/05 12:15:14;;;;;;;7.63;2.00;;;8.10;99.90;;;;;;5027138;28;20385;-43
2022/02/05 12:20:28;;;;;;;6.57;2.20;;;8.20;99.90;;;;;;5026405;28;20551;-43
2022/02/05 12:25:59;;;;;;;6.90;2.03;;;8.30;99.90;;;;;;5007417;28;20038;-44
2022/02/05 12:28:33;;;;;;;7.40;2.00;;;8.30;99.90;;;;;;5023245;28;20029;-42
2022/02/05 12:31:00;;;;;;;8.75;2.30;;;8.20;99.90;;;;;;5026158;28;20033;-43
2022/02/05 12:33:43;;;;;;;7.65;2.08;;;8.20;99.90;;;;;;5025763;28;20013;-43
2022/02/05 12:36:08;;;;;;;10.85;1.88;;;8.10;99.90;;;;;;5006726;28;20053;-42
2022/02/05 12:38:41;;;;;;;6.78;2.08;;;8.20;99.90;;;;;;5021032;28;20064;-43
2022/02/05 12:41:09;;;;;;;5.15;1.80;;;8.10;99.90;;;;;;5026366;28;20033;-44
2022/02/05 12:43:56;;;;;;;7.95;1.65;;;8.20;99.90;;;;;;5024784;28;20111;-43
2022/02/05 12:46:26;;;;;;;9.52;1.90;;;8.20;99.90;;;;;;5003128;28;20046;-44
2022/02/05 12:48:57;;;;;;;4.53;1.55;;;8.30;99.90;;;;;;5012658;28;20021;-43
2022/02/05 12:51:23;;;;;;;7.00;2.30;;;8.30;99.90;;;;;;5024344;28;20036;-43
2022/02/05 12:53:49;;;;;;;7.25;2.40;;;8.30;99.90;;;;;;5025208;28;20380;-42
2022/02/05 12:56:17;;;;;;;7.53;2.10;;;8.30;99.90;;;;;;5025601;28;20037;-44
2022/02/05 12:59:07;;;;;;;10.40;3.25;;;8.30;99.90;;;;;;5025518;28;20048;-44
2022/02/05 13:01:36;;;;;;;7.65;2.10;;;8.40;99.90;;;;;;5025402;28;20529;-43
2022/02/05 13:04:18;;;;;;;8.13;1.90;;;8.40;99.90;;;;;;5025116;28;20191;-43
2022/02/05 13:06:44;;;;;;;7.15;1.88;;;8.40;99.90;;;;;;5026627;28;20021;-43
2022/02/05 13:09:21;;;;;;;9.23;2.42;;;8.40;99.90;;;;;;5025298;28;20053;-44
2022/02/05 13:11:52;;;;;;;10.30;2.40;;;8.40;99.90;;;;;;5024784;28;20033;-43
2022/02/05 13:14:18;;;;;;;5.67;2.20;;;8.50;99.90;;;;;;5025217;28;20774;-43
2022/02/05 13:16:46;;;;;;;7.00;2.40;;;8.40;99.90;;;;;;5026331;28;20026;-43
2022/02/05 13:19:26;;;;;;;9.02;2.33;;;8.40;99.90;;;;;;5024070;28;20491;-42
2022/02/05 13:25:05;;;;;;;7.50;2.15;;;8.50;99.90;;;;;;5025337;28;20131;-43
2022/02/05 13:28:01;;;;;;;8.18;2.05;;;8.60;99.90;;;;;;5024698;28;20033;-43
2022/02/05 13:36:01;;;;;;;8.27;2.10;;;8.80;99.90;;;;;;5024560;28;20075;-43
2022/02/05 13:38:30;;;;;;;7.10;1.90;;;8.90;99.90;;;;;;5025652;28;20121;-43
2022/02/05 13:41:00;;;;;;;7.72;2.55;;;8.90;99.90;;;;;;5024500;28;20523;-44
2022/02/05 13:43:40;;;;;;;9.43;1.80;;;8.90;99.90;;;;;;5025679;28;20029;-43
2022/02/05 13:46:14;;;;;;;7.00;2.05;;;8.80;99.90;;;;;;5025544;28;20037;-43
2022/02/05 13:48:41;;;;;;;7.75;1.73;;;8.70;99.90;;;;;;5025045;28;20017;-43
2022/02/05 13:51:08;;;;;;;8.40;2.25;;;8.60;99.90;;;;;;5025363;28;20029;-43
2022/02/05 13:53:34;;;;;;;7.15;2.10;;;8.60;99.90;;;;;;5025282;28;20428;-43
2022/02/05 13:56:04;;;;;;;7.28;1.92;;;8.60;99.90;;;;;;5024980;28;20694;-42
2022/02/05 13:58:40;;;;;;;9.32;1.92;;;8.60;99.90;;;;;;5025123;28;20163;-43
2022/02/05 14:01:06;;;;;;;10.80;1.90;;;8.60;99.90;;;;;;5024714;28;20036;-43
2022/02/05 14:03:34;;;;;;;5.35;1.50;;;8.60;99.90;;;;;;5024825;28;20132;-42
2022/02/05 14:06:05;;;;;;;6.80;1.67;;;8.60;99.90;;;;;;5027350;28;20053;-43
2022/02/05 14:08:36;;;;;;;6.38;1.92;;;8.60;99.90;;;;;;5027793;28;20374;-42
2022/02/05 14:11:06;;;;;;;5.50;1.60;;;8.50;99.90;;;;;;5029535;28;20026;-42
2022/02/05 14:13:32;;;;;;;8.27;2.10;;;8.50;99.90;;;;;;5028420;28;20429;-43
2022/02/05 14:16:00;;;;;;;9.25;2.33;;;8.50;99.90;;;;;;5028140;28;20029;-43
2022/02/05 14:18:27;;;;;;;7.53;1.80;;;8.50;99.90;;;;;;5028610;28;20026;-44
2022/02/05 14:21:01;;;;;;;6.47;1.58;;;8.50;99.90;;;;;;5028643;28;20026;-43
2022/02/05 14:23:30;;;;;;;9.15;2.20;;;8.50;99.90;;;;;;5027764;28;20030;-43
2022/02/05 14:26:03;;;;;;;5.63;1.60;;;8.50;99.90;;;;;;5028266;28;20033;-42
2022/02/05 14:28:47;;;;;;;5.35;1.92;;;8.50;99.90;;;;;;5018287;28;20018;-44
2022/02/05 14:31:19;;;;;;;4.90;1.80;;;8.50;99.90;;;;;;5028340;28;20120;-44
2022/02/05 14:41:49;;;;;;;6.22;1.92;;;8.70;99.90;;;;;;5028330;28;20079;-43
2022/02/05 14:44:15;;;;;;;5.68;1.92;;;8.70;99.90;;;;;;5027568;28;20417;-44
2022/02/05 14:46:41;;;;;;;8.00;2.60;;;8.70;99.90;;;;;;5028449;28;20021;-43
2022/02/05 14:49:07;;;;;;;7.15;2.13;;;8.70;99.90;;;;;;5028801;28;20048;-43
2022/02/05 14:51:33;;;;;;;7.35;2.15;;;8.70;99.90;;;;;;5026712;28;20831;-44
2022/02/05 14:53:59;;;;;;;6.38;1.63;;;8.70;99.90;;;;;;5028186;28;20030;-44
2022/02/05 14:56:27;;;;;;;8.52;2.25;;;8.70;99.90;;;;;;5028343;28;20029;-44
2022/02/05 14:58:53;;;;;;;7.55;2.08;;;8.70;99.90;;;;;;5026393;28;20025;-44
2022/02/05 15:01:21;;;;;;;7.95;1.80;;;8.60;99.90;;;;;;5028438;28;20143;-44
2022/02/05 15:03:50;;;;;;;7.50;2.20;;;8.60;99.90;;;;;;5027176;28;20488;-44
2022/02/05 15:06:21;;;;;;;6.13;2.10;;;8.50;99.90;;;;;;5027818;28;20041;-43
2022/02/05 15:08:51;;;;;;;8.77;2.53;;;8.50;99.90;;;;;;5028420;28;20098;-43
2022/02/05 15:11:17;;;;;;;5.63;2.20;;;8.50;99.90;;;;;;5027301;28;20017;-43
2022/02/05 15:13:43;;;;;;;5.35;2.15;;;8.50;99.90;;;;;;5027405;28;20040;-42
2022/02/05 15:16:11;;;;;;;10.80;1.92;;;8.50;99.90;;;;;;5027976;28;20025;-43
2022/02/05 15:18:41;;;;;;;7.63;2.20;;;8.50;99.90;;;;;;5026077;28;20029;-43
2022/02/05 15:21:08;;;;;;;6.60;2.15;;;8.50;99.90;;;;;;5013746;28;20026;-43
2022/02/05 15:23:34;;;;;;;7.25;2.30;;;8.40;99.90;;;;;;5019259;28;20023;-43
2022/02/05 15:26:02;;;;;;;9.73;2.25;;;8.40;99.90;;;;;;5028315;28;20539;-44
2022/02/05 15:28:28;;;;;;;5.13;2.00;;;8.40;99.90;;;;;;5027001;28;20049;-44
2022/02/05 15:30:54;;;;;;;6.97;2.10;;;8.30;99.90;;;;;;5028087;28;20061;-43
2022/02/05 15:33:21;;;;;;;8.75;2.45;;;8.30;99.90;;;;;;5026450;28;20053;-43
2022/02/05 15:35:53;;;;;;;8.82;2.45;;;8.20;99.90;;;;;;5027260;28;20025;-43
2022/02/05 15:38:27;;;;;;;7.45;2.28;;;8.20;99.90;;;;;;5026430;28;20469;-44
2022/02/05 15:43:45;;;;;;;7.22;2.53;;;8.10;99.90;;;;;;5027031;28;20408;-43
2022/02/05 15:46:14;;;;;;;7.78;2.85;;;8.10;99.90;;;;;;5016605;28;20037;-44
2022/02/05 15:48:41;;;;;;;10.85;2.60;;;8.00;99.90;;;;;;5027524;28;20029;-43
2022/02/05 15:51:08;;;;;;;6.43;2.50;;;8.00;99.90;;;;;;5027319;28;20087;-43
2022/02/05 15:53:37;;;;;;;6.55;2.30;;;8.10;99.90;;;;;;5026351;28;20512;-43
2022/02/05 15:56:05;;;;;;;9.52;2.80;;;8.10;99.90;;;;;;5027123;28;20048;-43